Time;durP1;ratioP1;P1;durP2;ratioP2;P2;SDS_P1;SDS_P2;PMS_P1;PMS_P2;Temp;Humidity;BMP_temperature;BMP_pressure;BME280_temperature;BME280_humidity;BME280_pressure;Samples;Min_cycle;Max_cycle;Signal;HPM_P1;HPM_P2
2023/09/03 00:02:05;;;;;;;1.70;1.60;;;;;;;;;;4949963;28;20229;-62
2023/09/03 00:04:33;;;;;;;4.43;1.67;;;;;;;;;;4960363;28;20685;-62
2023/09/03 00:07:00;;;;;;;3.50;1.88;;;;;;;;;;4953205;28;20266;-62
2023/09/03 00:09:27;;;;;;;1.85;1.55;;;;;;;;;;4955990;28;20709;-61
2023/09/03 00:11:54;;;;;;;1.63;1.52;;;;;;;;;;4954639;28;20214;-61
2023/09/03 00:14:21;;;;;;;3.92;1.55;;;;;;;;;;4946245;28;20230;-61
2023/09/03 00:16:48;;;;;;;2.47;1.55;;;;;;;;;;4948008;28;20729;-61
2023/09/03 00:19:15;;;;;;;2.97;1.50;;;;;;;;;;4947496;28;20230;-62
2023/09/03 00:21:44;;;;;;;1.90;1.80;;;;;;;;;;4953419;28;20206;-62
2023/09/03 00:24:11;;;;;;;1.48;1.40;;;;;;;;;;4958760;28;20238;-62
2023/09/03 00:26:38;;;;;;;1.50;1.50;;;;;;;;;;4947125;28;20737;-62
2023/09/03 00:29:05;;;;;;;1.75;1.70;;;;;;;;;;4943077;28;20215;-62
2023/09/03 00:31:32;;;;;;;1.52;1.42;;;;;;;;;;4946639;28;20218;-62
2023/09/03 00:33:59;;;;;;;1.80;1.70;;;;;;;;;;4946651;28;20622;-62
2023/09/03 00:36:26;;;;;;;1.38;1.38;;;;;;;;;;4959451;28;20202;-62
2023/09/03 00:38:57;;;;;;;4.88;1.70;;;;;;;;;;4956839;28;20229;-62
2023/09/03 00:41:24;;;;;;;1.55;1.55;;;;;;;;;;4951180;28;20337;-62
2023/09/03 00:43:51;;;;;;;1.80;1.75;;;;;;;;;;4948579;28;20226;-62
2023/09/03 00:46:18;;;;;;;2.08;1.73;;;;;;;;;;4952293;28;20524;-62
2023/09/03 00:48:45;;;;;;;1.63;1.52;;;;;;;;;;4954650;28;20598;-62
2023/09/03 00:51:13;;;;;;;4.43;1.80;;;;;;;;;;4948094;28;20265;-62
2023/09/03 00:53:41;;;;;;;4.15;1.98;;;;;;;;;;4956417;28;20217;-61
2023/09/03 00:56:10;;;;;;;1.50;1.50;;;;;;;;;;4948936;28;20202;-62
2023/09/03 00:58:37;;;;;;;3.58;1.85;;;;;;;;;;4948743;28;20226;-62
2023/09/03 01:01:05;;;;;;;1.60;1.50;;;;;;;;;;4949880;28;20203;-62
2023/09/03 01:03:32;;;;;;;1.60;1.50;;;;;;;;;;4957573;28;20389;-62
2023/09/03 01:05:59;;;;;;;3.38;1.60;;;;;;;;;;4956632;28;20238;-62
2023/09/03 01:08:27;;;;;;;1.60;1.60;;;;;;;;;;4958309;28;20226;-62
2023/09/03 01:11:03;;;;;;;2.38;1.80;;;;;;;;;;4942011;29;20909;-61
2023/09/03 01:13:37;;;;;;;2.47;1.42;;;;;;;;;;4949046;28;20210;-61
2023/09/03 01:16:08;;;;;;;2.15;1.70;;;;;;;;;;4960882;28;20897;-62
2023/09/03 01:18:39;;;;;;;3.80;1.40;;;;;;;;;;4950381;28;20590;-61
2023/09/03 01:21:17;;;;;;;3.47;1.73;;;;;;;;;;4945379;29;20234;-62
2023/09/03 01:23:50;;;;;;;3.08;1.70;;;;;;;;;;4953005;28;20207;-61
2023/09/03 01:26:25;;;;;;;1.60;1.60;;;;;;;;;;4946251;28;20203;-62
2023/09/03 01:28:54;;;;;;;1.30;1.30;;;;;;;;;;4948370;28;20293;-61
2023/09/03 01:31:22;;;;;;;2.78;1.77;;;;;;;;;;4947431;28;20202;-61
2023/09/03 01:33:50;;;;;;;1.92;1.83;;;;;;;;;;4956457;28;20244;-62
2023/09/03 01:36:17;;;;;;;3.47;1.45;;;;;;;;;;4947002;28;20213;-62
2023/09/03 01:38:44;;;;;;;3.40;1.80;;;;;;;;;;4956046;28;20929;-62
2023/09/03 01:41:13;;;;;;;2.30;2.00;;;;;;;;;;4952611;28;20238;-61
2023/09/03 01:43:41;;;;;;;1.85;1.50;;;;;;;;;;4942396;28;20207;-62
2023/09/03 01:46:12;;;;;;;1.77;1.60;;;;;;;;;;4959233;28;20215;-61
2023/09/03 01:48:51;;;;;;;2.88;1.58;;;;;;;;;;4948002;28;20203;-62
2023/09/03 01:51:23;;;;;;;3.03;1.50;;;;;;;;;;4943031;28;21005;-62
2023/09/03 01:53:53;;;;;;;4.15;2.10;;;;;;;;;;4945353;28;20226;-62
2023/09/03 01:56:21;;;;;;;1.52;1.50;;;;;;;;;;4947925;28;20307;-62
2023/09/03 01:58:50;;;;;;;2.40;1.60;;;;;;;;;;4948121;28;20274;-62
2023/09/03 02:01:19;;;;;;;1.80;1.65;;;;;;;;;;4953563;28;20218;-62
2023/09/03 02:03:47;;;;;;;3.38;1.70;;;;;;;;;;4951112;28;20582;-62
2023/09/03 02:06:14;;;;;;;4.88;2.10;;;;;;;;;;4963105;28;20214;-62
2023/09/03 02:08:41;;;;;;;1.58;1.35;;;;;;;;;;4965858;28;20218;-62
2023/09/03 02:11:08;;;;;;;1.33;1.30;;;;;;;;;;4945830;28;20438;-62
2023/09/03 02:13:36;;;;;;;2.45;1.30;;;;;;;;;;4949665;28;20215;-62
2023/09/03 02:16:03;;;;;;;2.80;1.60;;;;;;;;;;4950303;28;20258;-62
2023/09/03 02:18:31;;;;;;;1.60;1.50;;;;;;;;;;4961669;28;20214;-62
2023/09/03 02:20:58;;;;;;;1.80;1.67;;;;;;;;;;4964122;28;20723;-62
2023/09/03 02:23:25;;;;;;;1.55;1.52;;;;;;;;;;4963841;28;20566;-61
2023/09/03 02:25:59;;;;;;;1.65;1.55;;;;;;;;;;4967332;28;20480;-62
2023/09/03 02:28:26;;;;;;;2.22;2.03;;;;;;;;;;4959348;28;20199;-61
2023/09/03 02:30:53;;;;;;;4.00;2.00;;;;;;;;;;4949627;28;20211;-61
2023/09/03 02:33:20;;;;;;;1.83;1.73;;;;;;;;;;4960568;28;20215;-61
2023/09/03 02:35:49;;;;;;;2.88;1.90;;;;;;;;;;4961484;28;20286;-62
2023/09/03 02:38:16;;;;;;;2.13;2.00;;;;;;;;;;4949171;28;20218;-61
2023/09/03 02:40:43;;;;;;;4.05;1.80;;;;;;;;;;4950666;28;20705;-62
2023/09/03 02:43:10;;;;;;;1.73;1.63;;;;;;;;;;4965152;28;20210;-62
2023/09/03 02:45:37;;;;;;;1.83;1.58;;;;;;;;;;4966007;28;20230;-61
2023/09/03 02:48:04;;;;;;;1.70;1.60;;;;;;;;;;4932800;28;20215;-62
2023/09/03 02:50:31;;;;;;;2.65;2.28;;;;;;;;;;4949900;28;20211;-62
2023/09/03 02:52:59;;;;;;;2.80;2.08;;;;;;;;;;4965189;28;20672;-61
2023/09/03 02:55:26;;;;;;;7.63;1.73;;;;;;;;;;4966567;28;20214;-62
2023/09/03 02:57:53;;;;;;;5.25;1.70;;;;;;;;;;4964682;28;20206;-61
2023/09/03 03:00:20;;;;;;;1.65;1.55;;;;;;;;;;4949473;28;20231;-61
2023/09/03 03:02:47;;;;;;;5.53;1.77;;;;;;;;;;4945163;28;20211;-61
2023/09/03 03:05:15;;;;;;;4.40;1.65;;;;;;;;;;4954360;28;20210;-61
2023/09/03 03:07:42;;;;;;;1.70;1.60;;;;;;;;;;4949296;28;20215;-62
2023/09/03 03:10:11;;;;;;;2.40;2.25;;;;;;;;;;4951677;28;20781;-62
2023/09/03 03:12:39;;;;;;;2.60;1.70;;;;;;;;;;4966710;28;20692;-61
2023/09/03 03:15:06;;;;;;;2.45;1.92;;;;;;;;;;4954197;28;20343;-62
2023/09/03 03:17:33;;;;;;;4.97;2.10;;;;;;;;;;4949170;28;20223;-61
2023/09/03 03:20:00;;;;;;;2.25;1.90;;;;;;;;;;4949149;28;20649;-62
2023/09/03 03:22:27;;;;;;;6.03;1.88;;;;;;;;;;4949052;28;20343;-62
2023/09/03 03:24:54;;;;;;;3.60;1.88;;;;;;;;;;4951132;28;20219;-62
2023/09/03 03:27:23;;;;;;;3.50;1.90;;;;;;;;;;4947155;28;20217;-62
2023/09/03 03:29:53;;;;;;;2.88;2.65;;;;;;;;;;4951561;28;20211;-62
2023/09/03 03:32:20;;;;;;;2.83;1.83;;;;;;;;;;4951242;28;20213;-61
2023/09/03 03:34:47;;;;;;;2.30;2.00;;;;;;;;;;4955748;28;20307;-62
2023/09/03 03:37:14;;;;;;;3.55;1.80;;;;;;;;;;4962532;28;20636;-61
2023/09/03 03:39:41;;;;;;;2.65;1.73;;;;;;;;;;4950211;28;20265;-62
2023/09/03 03:42:08;;;;;;;2.13;1.75;;;;;;;;;;4953888;28;20261;-61
2023/09/03 03:44:37;;;;;;;1.63;1.52;;;;;;;;;;4949532;28;20203;-61
2023/09/03 03:47:04;;;;;;;1.65;1.65;;;;;;;;;;4945901;28;20211;-61
2023/09/03 03:49:31;;;;;;;2.03;1.80;;;;;;;;;;4959102;28;20206;-62
2023/09/03 03:51:57;;;;;;;4.22;1.92;;;;;;;;;;4949563;28;20207;-61
2023/09/03 03:54:24;;;;;;;2.03;1.92;;;;;;;;;;4961711;28;20207;-61
2023/09/03 03:56:51;;;;;;;2.55;1.73;;;;;;;;;;4954285;28;20202;-61
2023/09/03 03:59:18;;;;;;;2.20;1.98;;;;;;;;;;4956001;28;20219;-62
2023/09/03 04:01:47;;;;;;;3.83;1.88;;;;;;;;;;4948590;28;20322;-61
2023/09/03 04:04:14;;;;;;;3.83;1.90;;;;;;;;;;4957241;28;20202;-62
2023/09/03 04:06:41;;;;;;;1.80;1.70;;;;;;;;;;4949147;28;20238;-62
2023/09/03 04:09:08;;;;;;;1.77;1.70;;;;;;;;;;4953304;28;20218;-62
2023/09/03 04:11:35;;;;;;;4.07;2.63;;;;;;;;;;4964610;28;20202;-61
2023/09/03 04:14:12;;;;;;;1.92;1.70;;;;;;;;;;4963549;28;20206;-62
2023/09/03 04:16:39;;;;;;;2.38;1.90;;;;;;;;;;4947886;28;20227;-62
2023/09/03 04:19:07;;;;;;;4.70;1.98;;;;;;;;;;4942724;28;20206;-62
2023/09/03 04:21:34;;;;;;;4.93;1.77;;;;;;;;;;4957107;28;20223;-61
2023/09/03 04:24:02;;;;;;;2.25;2.05;;;;;;;;;;4960336;28;20206;-62
2023/09/03 04:26:29;;;;;;;1.60;1.50;;;;;;;;;;4941657;28;20620;-61
2023/09/03 04:28:56;;;;;;;2.05;1.85;;;;;;;;;;4949529;28;20206;-62
2023/09/03 04:31:23;;;;;;;2.25;1.60;;;;;;;;;;4966915;28;20210;-61
2023/09/03 04:33:50;;;;;;;2.85;1.70;;;;;;;;;;4928911;29;20218;-61
2023/09/03 04:36:18;;;;;;;1.75;1.58;;;;;;;;;;4948934;28;20202;-62
2023/09/03 04:38:45;;;;;;;4.85;1.80;;;;;;;;;;4961815;28;20223;-62
2023/09/03 04:41:13;;;;;;;4.53;1.80;;;;;;;;;;4945732;28;20242;-61
2023/09/03 04:43:43;;;;;;;1.65;1.65;;;;;;;;;;4961742;28;20209;-62
2023/09/03 04:46:10;;;;;;;3.28;1.75;;;;;;;;;;4958375;28;20264;-61
2023/09/03 04:48:37;;;;;;;3.92;1.75;;;;;;;;;;4954214;28;20206;-62
2023/09/03 04:51:05;;;;;;;3.05;1.70;;;;;;;;;;4964741;28;20202;-62
2023/09/03 04:53:33;;;;;;;5.15;1.55;;;;;;;;;;4954713;28;20230;-61
2023/09/03 04:56:04;;;;;;;1.80;1.70;;;;;;;;;;4940554;28;20211;-61
2023/09/03 04:58:31;;;;;;;7.10;2.00;;;;;;;;;;4954901;28;20202;-61
2023/09/03 05:00:58;;;;;;;4.03;1.60;;;;;;;;;;4953454;28;20219;-61
2023/09/03 05:03:25;;;;;;;1.88;1.77;;;;;;;;;;4959276;28;20587;-61
2023/09/03 05:05:52;;;;;;;2.78;2.25;;;;;;;;;;4950840;28;20215;-61
2023/09/03 05:08:19;;;;;;;2.67;1.90;;;;;;;;;;4948476;28;20297;-62
2023/09/03 05:10:48;;;;;;;3.08;1.90;;;;;;;;;;4957800;28;20213;-61
2023/09/03 05:13:15;;;;;;;4.18;1.88;;;;;;;;;;4964163;28;20703;-61
2023/09/03 05:15:42;;;;;;;2.90;1.70;;;;;;;;;;4966694;28;20214;-61
2023/09/03 05:18:09;;;;;;;3.22;1.73;;;;;;;;;;4964300;28;20241;-61
2023/09/03 05:20:38;;;;;;;1.65;1.55;;;;;;;;;;4963396;28;20230;-62
2023/09/03 05:23:05;;;;;;;2.03;1.42;;;;;;;;;;4947148;28;20701;-61
2023/09/03 05:25:32;;;;;;;2.15;1.60;;;;;;;;;;4954351;28;20572;-61
2023/09/03 05:28:00;;;;;;;5.53;1.42;;;;;;;;;;4944593;28;20222;-61
2023/09/03 05:30:27;;;;;;;3.38;1.40;;;;;;;;;;4943697;28;20218;-62
2023/09/03 05:32:54;;;;;;;5.00;1.67;;;;;;;;;;4944624;28;20203;-61
2023/09/03 05:35:24;;;;;;;4.57;1.40;;;;;;;;;;4941216;28;20219;-61
2023/09/03 05:37:51;;;;;;;1.90;1.80;;;;;;;;;;4941666;28;20780;-61
2023/09/03 05:40:18;;;;;;;2.58;1.40;;;;;;;;;;4959165;28;20242;-61
2023/09/03 05:42:45;;;;;;;1.65;1.65;;;;;;;;;;4956471;28;20211;-61
2023/09/03 05:45:17;;;;;;;2.65;1.60;;;;;;;;;;4964337;28;20210;-61
2023/09/03 05:47:44;;;;;;;2.80;1.60;;;;;;;;;;4959411;28;20238;-62
2023/09/03 05:50:11;;;;;;;4.05;1.55;;;;;;;;;;4948387;28;20232;-61
2023/09/03 05:52:38;;;;;;;1.95;1.85;;;;;;;;;;4952361;28;20211;-62
2023/09/03 05:55:06;;;;;;;5.55;1.92;;;;;;;;;;4963030;28;20206;-61
2023/09/03 05:57:33;;;;;;;5.35;1.70;;;;;;;;;;4950719;28;20207;-62
2023/09/03 06:00:00;;;;;;;1.73;1.63;;;;;;;;;;4962239;28;20666;-62
2023/09/03 06:02:29;;;;;;;3.85;1.98;;;;;;;;;;4957080;28;20222;-61
2023/09/03 06:05:02;;;;;;;1.80;1.60;;;;;;;;;;4950378;29;20285;-61
2023/09/03 06:07:34;;;;;;;2.75;1.92;;;;;;;;;;4948459;28;20231;-61
2023/09/03 06:10:01;;;;;;;1.75;1.75;;;;;;;;;;4956755;28;20214;-61
2023/09/03 06:12:28;;;;;;;4.13;2.05;;;;;;;;;;4945339;28;20218;-61
2023/09/03 06:14:56;;;;;;;2.10;1.90;;;;;;;;;;4959584;28;20218;-62
2023/09/03 06:17:23;;;;;;;1.70;1.58;;;;;;;;;;4952901;28;20286;-64
2023/09/03 06:19:51;;;;;;;3.38;1.67;;;;;;;;;;4958361;28;20214;-64
2023/09/03 06:22:18;;;;;;;3.90;1.80;;;;;;;;;;4961535;28;21875;-64
2023/09/03 06:24:45;;;;;;;1.70;1.70;;;;;;;;;;4967610;28;20222;-64
2023/09/03 06:27:13;;;;;;;2.17;1.48;;;;;;;;;;4962316;28;20213;-64
2023/09/03 06:29:40;;;;;;;1.98;1.88;;;;;;;;;;4959149;28;20752;-64
2023/09/03 06:32:07;;;;;;;6.40;1.92;;;;;;;;;;4967286;28;20205;-65
2023/09/03 06:34:34;;;;;;;4.72;1.92;;;;;;;;;;4951268;28;20227;-64
2023/09/03 06:37:02;;;;;;;2.13;2.00;;;;;;;;;;4950470;28;20661;-64
2023/09/03 06:39:30;;;;;;;2.67;1.67;;;;;;;;;;4967409;28;20339;-64
2023/09/03 06:41:57;;;;;;;1.98;1.90;;;;;;;;;;4957466;28;20700;-64
2023/09/03 06:44:25;;;;;;;4.22;1.70;;;;;;;;;;4957877;28;20914;-64
2023/09/03 06:46:52;;;;;;;1.48;1.38;;;;;;;;;;4952306;28;20211;-64
2023/09/03 06:49:20;;;;;;;2.42;1.83;;;;;;;;;;4950120;28;20222;-64
2023/09/03 06:51:47;;;;;;;5.32;1.80;;;;;;;;;;4952797;28;20299;-64
2023/09/03 06:54:15;;;;;;;1.90;1.80;;;;;;;;;;4959831;28;20235;-64
2023/09/03 06:56:42;;;;;;;2.75;2.30;;;;;;;;;;4950652;28;20221;-64
2023/09/03 06:59:09;;;;;;;3.97;2.47;;;;;;;;;;4948820;28;20215;-64
2023/09/03 07:01:37;;;;;;;2.83;2.30;;;;;;;;;;4945064;28;20705;-64
2023/09/03 07:04:04;;;;;;;8.48;2.45;;;;;;;;;;4947549;28;20214;-64
2023/09/03 07:06:31;;;;;;;2.30;2.20;;;;;;;;;;4949535;28;20210;-65
2023/09/03 07:08:58;;;;;;;2.50;2.40;;;;;;;;;;4949563;28;20211;-64
2023/09/03 07:11:26;;;;;;;3.13;2.67;;;;;;;;;;4962341;28;20695;-64
2023/09/03 07:13:53;;;;;;;7.53;2.92;;;;;;;;;;4963417;28;20858;-64
2023/09/03 07:16:20;;;;;;;2.58;2.47;;;;;;;;;;4963157;28;20214;-64
2023/09/03 07:18:47;;;;;;;5.70;2.75;;;;;;;;;;4951935;28;20211;-64
2023/09/03 07:21:14;;;;;;;2.60;2.40;;;;;;;;;;4947592;28;20226;-65
2023/09/03 07:23:41;;;;;;;3.72;2.78;;;;;;;;;;4947205;29;20805;-64
2023/09/03 07:26:09;;;;;;;2.30;2.30;;;;;;;;;;4947082;29;20229;-64
2023/09/03 07:28:38;;;;;;;2.70;2.50;;;;;;;;;;4948879;29;20211;-64
2023/09/03 07:31:05;;;;;;;4.07;3.05;;;;;;;;;;4966435;28;20254;-64
2023/09/03 07:33:33;;;;;;;3.28;3.05;;;;;;;;;;4949132;28;20206;-65
2023/09/03 07:36:00;;;;;;;4.25;3.95;;;;;;;;;;4964389;28;20293;-65
2023/09/03 07:38:27;;;;;;;7.38;4.60;;;;;;;;;;4961115;28;20258;-65
2023/09/03 07:40:54;;;;;;;6.90;4.13;;;;;;;;;;4958734;28;20230;-65
2023/09/03 07:43:21;;;;;;;5.30;4.60;;;;;;;;;;4944765;28;20207;-65
2023/09/03 07:45:50;;;;;;;4.75;4.25;;;;;;;;;;4949369;28;20214;-65
2023/09/03 07:48:17;;;;;;;6.18;5.38;;;;;;;;;;4946726;29;20678;-65
2023/09/03 07:50:44;;;;;;;5.63;5.13;;;;;;;;;;4951375;28;20219;-63
2023/09/03 07:53:11;;;;;;;6.82;5.10;;;;;;;;;;4946580;28;20721;-66
2023/09/03 07:55:38;;;;;;;7.18;5.10;;;;;;;;;;4960501;28;20210;-63
2023/09/03 08:00:47;;;;;;;15.35;6.13;;;;;;;;;;4937035;28;20284;-64
2023/09/03 08:03:15;;;;;;;5.82;5.32;;;;;;;;;;4947969;28;20211;-63
2023/09/03 08:05:42;;;;;;;6.55;5.63;;;;;;;;;;4945516;28;20607;-63
2023/09/03 08:08:09;;;;;;;6.63;5.95;;;;;;;;;;4946624;29;20218;-61
2023/09/03 08:10:36;;;;;;;6.68;6.07;;;;;;;;;;4950843;28;20214;-62
2023/09/03 08:13:04;;;;;;;6.75;6.07;;;;;;;;;;4950263;28;20222;-63
2023/09/03 08:15:31;;;;;;;6.80;5.95;;;;;;;;;;4948417;28;20206;-64
2023/09/03 08:17:58;;;;;;;7.93;7.22;;;;;;;;;;4956788;28;20729;-63
2023/09/03 08:20:28;;;;;;;8.07;6.78;;;;;;;;;;4945927;29;20214;-61
2023/09/03 08:22:55;;;;;;;7.10;6.45;;;;;;;;;;4950434;28;20238;-61
2023/09/03 08:25:22;;;;;;;7.53;6.75;;;;;;;;;;4946664;28;20207;-64
2023/09/03 08:27:49;;;;;;;8.93;6.93;;;;;;;;;;4951497;28;20214;-67
2023/09/03 08:30:17;;;;;;;7.85;7.05;;;;;;;;;;4957071;28;20210;-63
2023/09/03 08:32:44;;;;;;;8.65;7.00;;;;;;;;;;4956011;28;20218;-61
2023/09/03 08:35:11;;;;;;;8.88;6.70;;;;;;;;;;4961458;28;20211;-61
2023/09/03 08:37:42;;;;;;;6.95;6.18;;;;;;;;;;4943191;28;20736;-61
2023/09/03 08:40:09;;;;;;;7.25;6.00;;;;;;;;;;4941856;28;20243;-61
2023/09/03 08:42:37;;;;;;;7.13;6.43;;;;;;;;;;4943481;28;20313;-61
2023/09/03 08:45:04;;;;;;;8.68;7.10;;;;;;;;;;4945351;29;20218;-63
2023/09/03 08:47:32;;;;;;;7.75;6.38;;;;;;;;;;4958227;28;20214;-61
2023/09/03 08:49:59;;;;;;;6.70;6.10;;;;;;;;;;4965043;28;20214;-60
2023/09/03 08:52:27;;;;;;;7.88;6.40;;;;;;;;;;4952537;28;20211;-65
2023/09/03 08:54:56;;;;;;;7.43;6.72;;;;;;;;;;4947280;28;20233;-63
2023/09/03 08:57:27;;;;;;;7.43;6.72;;;;;;;;;;4944853;28;20713;-65
2023/09/03 08:59:54;;;;;;;8.13;6.95;;;;;;;;;;4944335;29;20760;-65
2023/09/03 09:02:21;;;;;;;9.23;6.72;;;;;;;;;;4948144;28;20388;-65
2023/09/03 09:04:48;;;;;;;7.60;6.88;;;;;;;;;;4955257;28;20227;-64
2023/09/03 09:07:16;;;;;;;7.45;6.72;;;;;;;;;;4958242;28;20211;-67
2023/09/03 09:09:43;;;;;;;7.88;6.70;;;;;;;;;;4941451;28;20218;-63
2023/09/03 09:12:18;;;;;;;6.70;6.10;;;;;;;;;;4941713;28;20207;-63
2023/09/03 09:14:49;;;;;;;7.35;5.80;;;;;;;;;;4942841;28;20206;-63
2023/09/03 09:17:16;;;;;;;10.95;7.03;;;;;;;;;;4946206;28;20207;-63
2023/09/03 09:19:43;;;;;;;7.30;6.15;;;;;;;;;;4948260;28;20253;-63
2023/09/03 09:22:10;;;;;;;8.70;6.75;;;;;;;;;;4940954;28;20238;-65
2023/09/03 09:24:44;;;;;;;8.40;6.63;;;;;;;;;;4952942;28;20297;-65
2023/09/03 09:27:16;;;;;;;7.07;6.07;;;;;;;;;;4952777;28;20287;-63
2023/09/03 09:29:44;;;;;;;7.32;6.63;;;;;;;;;;4960743;28;20317;-66
2023/09/03 09:32:20;;;;;;;8.27;7.05;;;;;;;;;;4945371;28;20215;-63
2023/09/03 09:34:47;;;;;;;6.53;5.93;;;;;;;;;;4956435;28;20210;-61
2023/09/03 09:37:15;;;;;;;7.10;5.90;;;;;;;;;;4966010;28;20207;-60
2023/09/03 09:39:45;;;;;;;7.10;6.40;;;;;;;;;;4952302;28;20602;-60
2023/09/03 09:42:14;;;;;;;7.35;6.55;;;;;;;;;;4966316;28;20226;-61
2023/09/03 09:44:56;;;;;;;7.18;6.50;;;;;;;;;;4956161;28;20580;-61
2023/09/03 09:47:23;;;;;;;6.47;5.88;;;;;;;;;;4931985;29;20688;-61
2023/09/03 09:49:50;;;;;;;7.15;6.45;;;;;;;;;;4954549;28;20202;-59
2023/09/03 09:52:18;;;;;;;7.10;6.50;;;;;;;;;;4950025;28;20203;-62
2023/09/03 09:54:45;;;;;;;7.65;6.85;;;;;;;;;;4948832;28;20215;-60
2023/09/03 09:57:13;;;;;;;6.85;6.15;;;;;;;;;;4956233;28;20207;-66
2023/09/03 09:59:40;;;;;;;12.05;10.63;;;;;;;;;;4954551;28;20296;-60
2023/09/03 10:02:15;;;;;;;7.50;6.45;;;;;;;;;;4946908;28;20235;-60
2023/09/03 10:04:43;;;;;;;7.35;6.57;;;;;;;;;;4960640;28;20282;-60
2023/09/03 10:07:10;;;;;;;7.38;6.38;;;;;;;;;;4966756;28;20698;-62
2023/09/03 10:09:37;;;;;;;7.93;7.18;;;;;;;;;;4959020;28;20215;-61
2023/09/03 10:12:04;;;;;;;7.13;6.53;;;;;;;;;;4947292;29;20222;-62
2023/09/03 10:14:32;;;;;;;7.50;6.90;;;;;;;;;;4953402;28;20202;-63
2023/09/03 10:17:01;;;;;;;7.38;6.25;;;;;;;;;;4948102;28;20227;-61
2023/09/03 10:19:32;;;;;;;8.93;7.47;;;;;;;;;;4940417;29;20861;-63
2023/09/03 10:22:01;;;;;;;9.68;7.07;;;;;;;;;;4958947;28;20693;-63
2023/09/03 10:24:28;;;;;;;16.63;11.27;;;;;;;;;;4967398;28;20211;-62
2023/09/03 10:26:58;;;;;;;7.63;6.85;;;;;;;;;;4949042;28;20215;-61
2023/09/03 10:29:26;;;;;;;8.35;6.53;;;;;;;;;;4948257;28;20252;-62
2023/09/03 10:31:54;;;;;;;6.57;5.93;;;;;;;;;;4949534;28;20438;-62
2023/09/03 10:34:21;;;;;;;6.13;5.53;;;;;;;;;;4950546;28;20207;-62
2023/09/03 10:37:05;;;;;;;6.68;6.05;;;;;;;;;;4945714;28;20207;-63
2023/09/03 10:39:32;;;;;;;6.38;5.80;;;;;;;;;;4945568;29;20255;-63
2023/09/03 10:42:17;;;;;;;6.10;5.60;;;;;;;;;;4945317;28;20242;-63
2023/09/03 10:44:45;;;;;;;7.80;6.88;;;;;;;;;;4942363;29;20231;-63
2023/09/03 10:47:17;;;;;;;6.53;5.90;;;;;;;;;;4950313;28;20297;-63
2023/09/03 10:49:44;;;;;;;6.53;5.95;;;;;;;;;;4930501;29;20646;-63
2023/09/03 10:52:30;;;;;;;6.30;5.70;;;;;;;;;;4934670;28;20250;-63
2023/09/03 10:55:15;;;;;;;5.93;5.43;;;;;;;;;;4949869;28;20635;-62
2023/09/03 10:57:42;;;;;;;7.22;6.43;;;;;;;;;;4948511;28;20588;-63
2023/09/03 11:00:15;;;;;;;6.82;6.18;;;;;;;;;;4944912;28;20226;-63
2023/09/03 11:02:43;;;;;;;5.72;5.22;;;;;;;;;;4944510;28;20683;-62
2023/09/03 11:05:09;;;;;;;6.53;5.93;;;;;;;;;;4949356;28;20326;-62
2023/09/03 11:07:36;;;;;;;6.57;6.03;;;;;;;;;;4955268;28;20309;-62
2023/09/03 11:10:18;;;;;;;8.20;6.45;;;;;;;;;;4945165;28;20218;-62
2023/09/03 11:12:47;;;;;;;6.68;6.07;;;;;;;;;;4930364;29;20248;-62
2023/09/03 11:15:15;;;;;;;7.15;6.47;;;;;;;;;;4940379;28;20223;-63
2023/09/03 11:17:42;;;;;;;4.80;4.47;;;;;;;;;;4948515;29;20215;-63
2023/09/03 11:20:11;;;;;;;5.68;5.28;;;;;;;;;;4943484;28;20218;-60
2023/09/03 11:22:38;;;;;;;6.20;5.60;;;;;;;;;;4942936;28;20234;-62
2023/09/03 11:25:06;;;;;;;6.07;5.45;;;;;;;;;;4954467;28;20215;-61
2023/09/03 11:27:33;;;;;;;6.38;5.78;;;;;;;;;;4946271;29;20294;-61
2023/09/03 11:30:08;;;;;;;8.35;4.80;;;;;;;;;;4947246;28;20207;-61
2023/09/03 11:32:38;;;;;;;5.93;5.43;;;;;;;;;;4952819;28;20269;-62
2023/09/03 11:35:08;;;;;;;6.13;5.60;;;;;;;;;;4946127;28;20215;-63
2023/09/03 11:37:36;;;;;;;6.13;5.60;;;;;;;;;;4947872;29;20208;-62
2023/09/03 11:40:04;;;;;;;5.53;5.13;;;;;;;;;;4954983;28;20237;-61
2023/09/03 11:42:32;;;;;;;7.35;5.25;;;;;;;;;;4966249;28;20321;-61
2023/09/03 11:45:00;;;;;;;5.63;5.22;;;;;;;;;;4959530;28;20214;-61
2023/09/03 11:47:28;;;;;;;5.95;4.97;;;;;;;;;;4951193;28;20685;-60
2023/09/03 11:49:55;;;;;;;4.75;4.35;;;;;;;;;;4944106;28;20222;-60
2023/09/03 11:52:22;;;;;;;5.18;4.88;;;;;;;;;;4947670;28;20198;-61
2023/09/03 11:54:49;;;;;;;5.38;4.97;;;;;;;;;;4947173;28;20997;-61
2023/09/03 11:57:18;;;;;;;4.78;4.47;;;;;;;;;;4947376;28;20209;-61
2023/09/03 11:59:45;;;;;;;5.13;4.68;;;;;;;;;;4946968;28;20233;-60
2023/09/03 12:02:13;;;;;;;4.47;4.18;;;;;;;;;;4945892;28;20939;-63
2023/09/03 12:04:41;;;;;;;4.78;4.47;;;;;;;;;;4954727;28;20206;-65
2023/09/03 12:07:16;;;;;;;4.88;4.47;;;;;;;;;;4946159;28;20662;-63
2023/09/03 12:09:44;;;;;;;4.60;4.30;;;;;;;;;;4948032;28;20653;-65
2023/09/03 12:12:11;;;;;;;5.43;4.93;;;;;;;;;;4943466;29;20208;-66
2023/09/03 12:14:38;;;;;;;4.75;4.45;;;;;;;;;;4948932;28;20217;-69
2023/09/03 12:17:05;;;;;;;4.75;4.47;;;;;;;;;;4957982;28;20207;-64
2023/09/03 12:19:39;;;;;;;5.38;4.95;;;;;;;;;;4952210;28;20219;-64
2023/09/03 12:22:07;;;;;;;4.70;4.45;;;;;;;;;;4943140;28;20231;-61
2023/09/03 12:24:35;;;;;;;4.57;4.22;;;;;;;;;;4944742;28;20286;-60
2023/09/03 12:27:03;;;;;;;5.05;4.65;;;;;;;;;;4944640;28;20202;-62
2023/09/03 12:29:34;;;;;;;6.32;4.50;;;;;;;;;;4952949;28;20231;-61
2023/09/03 12:32:01;;;;;;;5.38;4.93;;;;;;;;;;4964605;28;20210;-63
2023/09/03 12:34:34;;;;;;;4.78;4.57;;;;;;;;;;4964466;28;20210;-63
2023/09/03 12:37:01;;;;;;;5.72;5.30;;;;;;;;;;4943747;28;20203;-60
2023/09/03 12:39:29;;;;;;;4.57;4.30;;;;;;;;;;4928004;29;20271;-60
2023/09/03 12:41:56;;;;;;;4.68;4.32;;;;;;;;;;4927719;29;20375;-62
2023/09/03 12:44:23;;;;;;;5.20;4.90;;;;;;;;;;4946190;28;20322;-62
2023/09/03 12:46:51;;;;;;;5.60;5.20;;;;;;;;;;4948794;28;20215;-62
2023/09/03 12:49:18;;;;;;;5.57;5.13;;;;;;;;;;4953061;28;20583;-64
2023/09/03 12:51:45;;;;;;;4.97;4.63;;;;;;;;;;4946574;28;20729;-62
2023/09/03 12:54:12;;;;;;;5.43;5.03;;;;;;;;;;4950115;28;20203;-62
2023/09/03 12:56:41;;;;;;;5.35;5.00;;;;;;;;;;4962571;28;20700;-61
2023/09/03 12:59:08;;;;;;;4.45;4.15;;;;;;;;;;4949753;28;20877;-62
2023/09/03 13:01:35;;;;;;;4.25;3.95;;;;;;;;;;4949581;28;20309;-61
2023/09/03 13:04:05;;;;;;;4.18;3.80;;;;;;;;;;4962357;28;20276;-62
2023/09/03 13:06:32;;;;;;;4.63;4.20;;;;;;;;;;4960868;28;20206;-62
2023/09/03 13:08:59;;;;;;;3.88;3.70;;;;;;;;;;4962940;28;20246;-63
2023/09/03 13:11:26;;;;;;;4.68;4.40;;;;;;;;;;4941418;28;20214;-64
2023/09/03 13:13:55;;;;;;;4.20;3.95;;;;;;;;;;4943262;28;20211;-63
2023/09/03 13:16:27;;;;;;;4.20;4.00;;;;;;;;;;4958920;28;20237;-64
2023/09/03 13:18:55;;;;;;;4.47;4.18;;;;;;;;;;4958084;28;20516;-63
2023/09/03 13:21:22;;;;;;;4.60;4.22;;;;;;;;;;4946676;29;20863;-62
2023/09/03 13:23:50;;;;;;;4.47;4.18;;;;;;;;;;4955020;28;20253;-63
2023/09/03 13:26:17;;;;;;;3.58;3.38;;;;;;;;;;4944415;29;20218;-64
2023/09/03 13:28:44;;;;;;;3.60;3.40;;;;;;;;;;4946948;29;20215;-64
2023/09/03 13:31:12;;;;;;;3.97;3.78;;;;;;;;;;4944659;29;20705;-61
2023/09/03 13:33:40;;;;;;;3.55;3.45;;;;;;;;;;4946756;28;20220;-63
2023/09/03 13:36:10;;;;;;;3.85;3.65;;;;;;;;;;4937350;28;20211;-64
2023/09/03 13:38:37;;;;;;;4.07;3.78;;;;;;;;;;4953441;28;20324;-63
2023/09/03 13:41:14;;;;;;;4.50;4.20;;;;;;;;;;4942863;28;20252;-64
2023/09/03 13:43:42;;;;;;;3.70;3.50;;;;;;;;;;4952616;28;20697;-65
2023/09/03 13:46:09;;;;;;;3.65;3.45;;;;;;;;;;4954552;28;20209;-64
2023/09/03 13:48:37;;;;;;;3.38;3.13;;;;;;;;;;4948804;28;20242;-64
2023/09/03 13:51:11;;;;;;;3.63;3.42;;;;;;;;;;4961212;28;20681;-64
2023/09/03 13:53:38;;;;;;;3.65;3.45;;;;;;;;;;4950702;28;20430;-64
2023/09/03 13:56:06;;;;;;;3.78;3.58;;;;;;;;;;4952994;28;20592;-64
2023/09/03 13:58:33;;;;;;;3.58;3.47;;;;;;;;;;4956133;28;20202;-64
2023/09/03 14:01:00;;;;;;;3.90;3.60;;;;;;;;;;4941823;28;20244;-64
2023/09/03 14:03:27;;;;;;;3.67;3.30;;;;;;;;;;4945510;28;20246;-64
2023/09/03 14:06:05;;;;;;;3.47;3.28;;;;;;;;;;4941870;28;20314;-64
2023/09/03 14:08:32;;;;;;;3.70;3.47;;;;;;;;;;4944777;28;20263;-65
2023/09/03 14:10:59;;;;;;;3.58;3.47;;;;;;;;;;4946080;28;20211;-63
2023/09/03 14:13:27;;;;;;;3.65;3.55;;;;;;;;;;4951190;28;20662;-63
2023/09/03 14:15:54;;;;;;;4.07;3.88;;;;;;;;;;4930149;29;20216;-63
2023/09/03 14:18:21;;;;;;;3.47;3.28;;;;;;;;;;4943990;28;20207;-63
2023/09/03 14:20:48;;;;;;;3.17;3.08;;;;;;;;;;4948732;29;20215;-64
2023/09/03 14:23:16;;;;;;;3.22;3.13;;;;;;;;;;4945809;29;20238;-64
2023/09/03 14:25:43;;;;;;;3.35;3.05;;;;;;;;;;4941772;29;20207;-65
2023/09/03 14:28:10;;;;;;;3.55;3.40;;;;;;;;;;4951603;28;20244;-64
2023/09/03 14:30:38;;;;;;;4.72;3.35;;;;;;;;;;4945774;28;20671;-65
2023/09/03 14:33:05;;;;;;;4.05;3.65;;;;;;;;;;4947537;28;20207;-65
2023/09/03 14:35:34;;;;;;;3.60;3.38;;;;;;;;;;4954168;28;20214;-64
2023/09/03 14:38:01;;;;;;;4.10;3.90;;;;;;;;;;4957632;28;20230;-65
2023/09/03 14:40:31;;;;;;;3.72;3.53;;;;;;;;;;4961938;28;20242;-64
2023/09/03 14:42:58;;;;;;;3.67;3.53;;;;;;;;;;4953905;28;20214;-64
2023/09/03 14:45:25;;;;;;;3.70;3.50;;;;;;;;;;4946550;28;20403;-64
2023/09/03 14:47:52;;;;;;;3.50;3.40;;;;;;;;;;4951254;28;20756;-63
2023/09/03 14:50:19;;;;;;;3.50;3.30;;;;;;;;;;4947165;28;20219;-65
2023/09/03 14:52:46;;;;;;;3.90;3.70;;;;;;;;;;4950103;28;20222;-64